createdAt,value
2023-09-24T00:00:02.873Z,60.44
2023-09-24T00:00:19.002Z,60.42
2023-09-24T00:00:35.141Z,60.4
2023-09-24T00:00:51.284Z,60.44
2023-09-24T00:01:07.435Z,60.43
2023-09-24T00:01:23.645Z,60.53
2023-09-24T00:01:39.786Z,60.63
2023-09-24T00:01:55.938Z,60.71
2023-09-24T00:02:12.038Z,60.79
2023-09-24T00:02:28.213Z,60.74
2023-09-24T00:02:44.357Z,60.84
2023-09-24T00:03:00.536Z,60.73
2023-09-24T00:03:16.723Z,60.6
2023-09-24T00:03:32.990Z,61.12
2023-09-24T00:03:49.288Z,61.19
2023-09-24T00:04:05.057Z,61.31
2023-09-24T00:04:21.246Z,61.33
2023-09-24T00:04:37.412Z,61.21
2023-09-24T00:04:53.499Z,61.09
2023-09-24T00:05:25.794Z,60.9
2023-09-24T00:05:41.969Z,60.77
2023-09-24T00:05:58.140Z,60.67
2023-09-24T00:06:30.342Z,60.62
2023-09-24T00:06:46.494Z,60.48
2023-09-24T00:07:02.621Z,60.42
2023-09-24T00:07:34.923Z,60.34
2023-09-24T00:07:51.095Z,60.36
2023-09-24T00:08:07.219Z,60.42
2023-09-24T00:08:23.446Z,60.6
2023-09-24T00:08:39.573Z,60.83
2023-09-24T00:08:55.678Z,60.95
2023-09-24T00:09:11.806Z,60.91
2023-09-24T00:09:28.002Z,60.74
2023-09-24T00:09:44.097Z,60.67
2023-09-24T00:10:00.256Z,60.71
2023-09-24T00:10:16.387Z,60.69
2023-09-24T00:10:32.557Z,60.57
2023-09-24T00:10:48.677Z,60.5
2023-09-24T00:11:04.822Z,60.5
2023-09-24T00:11:20.988Z,60.6
2023-09-24T00:11:37.151Z,60.65
2023-09-24T00:11:53.329Z,60.73
2023-09-24T00:12:09.431Z,60.62
2023-09-24T00:12:25.766Z,60.69
2023-09-24T00:12:41.705Z,60.78
2023-09-24T00:12:57.829Z,60.84
2023-09-24T00:13:14.018Z,60.76
2023-09-24T00:13:30.167Z,60.66
2023-09-24T00:13:46.484Z,60.46
2023-09-24T00:14:02.442Z,60.36
2023-09-24T00:14:18.641Z,60.42
2023-09-24T00:14:34.765Z,60.54
2023-09-24T00:14:50.933Z,60.63
2023-09-24T00:15:07.012Z,60.61
2023-09-24T00:15:23.156Z,60.67
2023-09-24T00:15:39.288Z,60.68
2023-09-24T00:15:55.486Z,60.56
2023-09-24T00:16:11.520Z,60.55
2023-09-24T00:16:27.772Z,60.57
2023-09-24T00:16:43.900Z,60.48
2023-09-24T00:17:00.018Z,60.44
2023-09-24T00:17:16.182Z,60.27
2023-09-24T00:17:32.415Z,60.34
2023-09-24T00:17:48.544Z,60.44
2023-09-24T00:18:04.715Z,60.44
2023-09-24T00:18:21.123Z,60.41
2023-09-24T00:18:37.066Z,60.51
2023-09-24T00:18:53.038Z,60.82
2023-09-24T00:19:41.465Z,60.65
2023-09-24T00:20:29.933Z,60.66
2023-09-24T00:20:46.113Z,60.71
2023-09-24T00:21:34.494Z,60.68
2023-09-24T00:21:50.575Z,60.64
2023-09-24T00:22:38.997Z,60.51
2023-09-24T00:22:55.220Z,60.41
2023-09-24T00:23:43.665Z,60.53
2023-09-24T00:23:59.828Z,60.67
2023-09-24T00:24:48.247Z,60.8
2023-09-24T00:25:04.400Z,61
2023-09-24T00:25:52.820Z,60.75
2023-09-24T00:26:08.958Z,60.79
2023-09-24T00:26:57.461Z,60.35
2023-09-24T00:28:02.004Z,60.62
2023-09-24T00:29:06.581Z,60.73
2023-09-24T00:30:11.096Z,60.77
2023-09-24T00:31:15.723Z,60.75
2023-09-24T00:31:31.927Z,60.89
2023-09-24T00:32:20.301Z,61.17
2023-09-24T00:32:36.518Z,61.35
2023-09-24T00:33:25.175Z,60.99
2023-09-24T00:33:41.036Z,61.09
2023-09-24T00:34:29.482Z,60.86
2023-09-24T00:34:45.630Z,60.85
2023-09-24T00:35:34.186Z,60.63
2023-09-24T00:35:50.254Z,60.62
2023-09-24T00:36:38.646Z,60.67
2023-09-24T00:36:54.707Z,60.73
2023-09-24T00:37:43.136Z,60.85
2023-09-24T00:37:59.282Z,60.87
2023-09-24T00:38:47.831Z,61.04
2023-09-24T00:39:03.919Z,61.03
2023-09-24T00:39:52.320Z,61.4
2023-09-24T00:40:08.536Z,61.49
2023-09-24T00:41:08.272Z,61.21
2023-09-24T00:41:24.486Z,61.29
2023-09-24T00:41:40.588Z,61.32
2023-09-24T00:41:56.715Z,61.4
2023-09-24T00:42:12.831Z,61.75
2023-09-24T00:42:28.995Z,61.84
2023-09-24T00:42:45.135Z,61.73
2023-09-24T00:43:01.283Z,61.71
2023-09-24T00:43:17.426Z,61.7
2023-09-24T00:43:33.574Z,61.37
2023-09-24T00:43:49.958Z,61.24
2023-09-24T00:44:05.874Z,61.17
2023-09-24T00:44:22.011Z,61.07
2023-09-24T00:44:38.183Z,61.08
2023-09-24T00:45:26.623Z,61.26
2023-09-24T00:45:42.745Z,61.16
2023-09-24T00:46:31.162Z,61.05
2023-09-24T00:46:47.310Z,61.03
2023-09-24T00:47:19.663Z,60.94
2023-09-24T00:47:35.845Z,60.9
2023-09-24T00:47:51.976Z,61.01
2023-09-24T00:48:24.300Z,61.3
2023-09-24T00:48:40.514Z,61.6
2023-09-24T00:48:56.476Z,61.77
2023-09-24T00:49:28.764Z,61.68
2023-09-24T00:49:44.914Z,61.69
2023-09-24T00:50:01.067Z,61.64
2023-09-24T00:50:17.198Z,61.36
2023-09-24T00:50:33.470Z,61.24
2023-09-24T00:50:49.562Z,61.19
2023-09-24T00:51:05.636Z,60.99
2023-09-24T00:51:21.825Z,61.03
2023-09-24T00:51:37.933Z,61.19
2023-09-24T00:51:54.074Z,61.23
2023-09-24T00:52:10.233Z,61.13
2023-09-24T00:52:26.389Z,61
2023-09-24T00:52:42.502Z,60.97
2023-09-24T00:52:58.664Z,61.09
2023-09-24T00:53:14.808Z,61.13
2023-09-24T00:53:30.974Z,61.28
2023-09-24T00:53:47.404Z,61.45
2023-09-24T00:54:03.300Z,61.45
2023-09-24T00:54:19.389Z,61.51
2023-09-24T00:54:35.536Z,61.51
2023-09-24T00:54:51.677Z,61.42
2023-09-24T00:55:07.830Z,61.44
2023-09-24T00:55:23.970Z,61.5
2023-09-24T00:55:40.133Z,61.56
2023-09-24T00:55:56.263Z,61.84
2023-09-24T00:56:12.413Z,61.94
2023-09-24T00:56:28.614Z,61.88
2023-09-24T00:56:44.745Z,61.73
2023-09-24T00:57:00.890Z,61.67
2023-09-24T00:57:16.985Z,61.58
2023-09-24T00:57:33.150Z,61.51
2023-09-24T00:57:49.323Z,61.37
2023-09-24T00:58:05.430Z,61.31
2023-09-24T00:58:21.566Z,61.24
2023-09-24T00:58:37.718Z,61.13
2023-09-24T00:58:53.917Z,61.09
2023-09-24T00:59:26.158Z,61.23
2023-09-24T00:59:42.347Z,61.25
2023-09-24T00:59:58.502Z,61.32
2023-09-24T01:00:30.745Z,61.51
2023-09-24T01:00:46.879Z,61.26
2023-09-24T01:01:03.069Z,61.19
2023-09-24T01:01:35.354Z,61.34
2023-09-24T01:01:51.457Z,61.41
2023-09-24T01:02:07.632Z,61.46
2023-09-24T01:02:23.833Z,61.35
2023-09-24T01:02:40.036Z,61.26
2023-09-24T01:02:56.249Z,61.28
2023-09-24T01:03:12.359Z,61.25
2023-09-24T01:03:28.789Z,61.23
2023-09-24T01:03:44.749Z,61.21
2023-09-24T01:04:00.806Z,61.24
2023-09-24T01:04:16.978Z,61.34
2023-09-24T01:04:32.971Z,61.45
2023-09-24T01:04:49.061Z,61.57
2023-09-24T01:05:05.210Z,61.57
2023-09-24T01:05:21.378Z,61.36
2023-09-24T01:05:37.523Z,61.32
2023-09-24T01:05:53.704Z,61.48
2023-09-24T01:06:09.797Z,61.61
2023-09-24T01:06:25.957Z,61.54
2023-09-24T01:06:42.095Z,61.47
2023-09-24T01:06:58.238Z,61.32
2023-09-24T01:07:14.380Z,61.33
2023-09-24T01:07:30.514Z,61.35
2023-09-24T01:07:46.666Z,61.46
2023-09-24T01:08:02.808Z,61.53
2023-09-24T01:08:18.968Z,61.51
2023-09-24T01:08:35.156Z,61.51
2023-09-24T01:08:51.338Z,61.65
2023-09-24T01:09:07.398Z,61.66
2023-09-24T01:09:23.549Z,61.67
2023-09-24T01:09:39.712Z,61.62
2023-09-24T01:09:55.819Z,61.68
2023-09-24T01:10:11.934Z,61.72
2023-09-24T01:10:28.147Z,61.79
2023-09-24T01:10:44.263Z,61.89
2023-09-24T01:11:00.403Z,61.91
2023-09-24T01:11:16.546Z,61.83
2023-09-24T01:11:32.774Z,61.78
2023-09-24T01:11:49.013Z,61.75
2023-09-24T01:12:05.021Z,61.75
2023-09-24T01:12:21.152Z,61.72
2023-09-24T01:12:37.288Z,61.79
2023-09-24T01:12:53.425Z,61.93
2023-09-24T01:13:09.567Z,61.99
2023-09-24T01:13:25.733Z,61.9
2023-09-24T01:13:41.785Z,61.87
2023-09-24T01:13:58.043Z,61.85
2023-09-24T01:14:14.161Z,61.92
2023-09-24T01:14:30.355Z,61.91
2023-09-24T01:14:46.491Z,61.98
2023-09-24T01:15:02.622Z,61.96
2023-09-24T01:15:18.749Z,61.98
2023-09-24T01:15:34.916Z,61.97
2023-09-24T01:15:51.082Z,61.94
2023-09-24T01:16:07.210Z,61.99
2023-09-24T01:16:23.436Z,62.03
2023-09-24T01:16:39.482Z,61.98
2023-09-24T01:16:55.630Z,62.05
2023-09-24T01:17:44.100Z,62.37
2023-09-24T01:18:00.293Z,62.31
2023-09-24T01:18:48.727Z,62.27
2023-09-24T01:19:04.786Z,62.33
2023-09-24T01:19:53.208Z,62.21
2023-09-24T01:20:09.366Z,62.35
2023-09-24T01:20:57.796Z,62.48
2023-09-24T01:21:13.928Z,62.46
2023-09-24T01:22:02.417Z,62.05
2023-09-24T01:22:18.452Z,61.95
2023-09-24T01:23:06.883Z,62.19
2023-09-24T01:23:23.133Z,62.39
2023-09-24T01:24:11.598Z,61.97
2023-09-24T01:24:27.611Z,61.87
2023-09-24T01:25:16.235Z,61.68
2023-09-24T01:25:32.328Z,61.78
2023-09-24T01:26:20.823Z,61.63
2023-09-24T01:26:36.896Z,61.72
2023-09-24T01:27:25.303Z,61.81
2023-09-24T01:27:41.355Z,61.88
2023-09-24T01:28:29.920Z,62.09
2023-09-24T01:28:46.019Z,62.19
2023-09-24T01:29:34.467Z,62.45
2023-09-24T01:29:50.647Z,62.44
2023-09-24T01:30:39.042Z,62.14
2023-09-24T01:30:55.190Z,62.11
2023-09-24T01:31:43.643Z,62.2
2023-09-24T01:31:59.712Z,62.12
2023-09-24T01:32:48.205Z,62.15
2023-09-24T01:33:04.469Z,62.11
2023-09-24T01:33:53.157Z,62.27
2023-09-24T01:34:09.093Z,62.4
2023-09-24T01:34:25.206Z,62.29
2023-09-24T01:35:08.662Z,62.46
2023-09-24T01:35:24.824Z,62.46
2023-09-24T01:35:57.140Z,62.46
2023-09-24T01:36:13.227Z,62.44
2023-09-24T01:36:29.384Z,62.51
2023-09-24T01:36:45.531Z,62.56
2023-09-24T01:37:01.672Z,62.64
2023-09-24T01:37:17.834Z,62.66
2023-09-24T01:37:33.978Z,62.76
2023-09-24T01:37:50.115Z,62.75
2023-09-24T01:38:06.303Z,62.69
2023-09-24T01:38:22.447Z,62.62
2023-09-24T01:38:38.622Z,62.64
2023-09-24T01:38:54.776Z,62.68
2023-09-24T01:39:10.833Z,62.74
2023-09-24T01:39:26.987Z,62.76
2023-09-24T01:39:43.134Z,62.82
2023-09-24T01:39:59.277Z,62.97
2023-09-24T01:40:15.430Z,63.05
2023-09-24T01:40:31.573Z,62.99
2023-09-24T01:40:47.714Z,62.79
2023-09-24T01:41:03.845Z,62.75
2023-09-24T01:41:20.013Z,62.91
2023-09-24T01:41:36.200Z,63.02
2023-09-24T01:41:52.442Z,62.99
2023-09-24T01:42:08.462Z,62.82
2023-09-24T01:42:24.595Z,62.63
2023-09-24T01:42:40.731Z,62.6
2023-09-24T01:42:56.885Z,62.59
2023-09-24T01:43:13.014Z,62.37
2023-09-24T01:43:29.162Z,62.3
2023-09-24T01:43:45.358Z,62.31
2023-09-24T01:44:01.456Z,62.44
2023-09-24T01:44:17.609Z,62.58
2023-09-24T01:44:50.082Z,62.64
2023-09-24T01:45:06.031Z,62.71
2023-09-24T01:45:22.190Z,62.69
2023-09-24T01:45:54.498Z,62.45
2023-09-24T01:46:10.635Z,62.37
2023-09-24T01:46:26.819Z,62.37
2023-09-24T01:46:59.075Z,62.53
2023-09-24T01:47:15.202Z,62.53
2023-09-24T01:47:31.424Z,62.62
2023-09-24T01:47:47.603Z,62.56
2023-09-24T01:48:03.762Z,62.39
2023-09-24T01:48:19.889Z,62.26
2023-09-24T01:48:36.036Z,62.36
2023-09-24T01:48:52.100Z,62.44
2023-09-24T01:49:08.241Z,62.58
2023-09-24T01:49:24.399Z,62.69
2023-09-24T01:49:40.534Z,62.72
2023-09-24T01:49:56.660Z,62.46
2023-09-24T01:50:12.834Z,62.48
2023-09-24T01:50:29.066Z,62.63
2023-09-24T01:50:45.172Z,62.76
2023-09-24T01:51:01.280Z,62.91
2023-09-24T01:51:17.420Z,62.95
2023-09-24T01:51:33.533Z,62.92
2023-09-24T01:51:49.683Z,62.7
2023-09-24T01:52:05.836Z,62.77
2023-09-24T01:52:21.966Z,62.88
2023-09-24T01:52:54.260Z,62.83
2023-09-24T01:53:10.403Z,62.85
2023-09-24T01:53:26.640Z,62.8
2023-09-24T01:53:42.734Z,62.8
2023-09-24T01:53:58.959Z,62.78
2023-09-24T01:54:14.985Z,62.9
2023-09-24T01:54:31.318Z,62.89
2023-09-24T01:54:47.280Z,62.89
2023-09-24T01:55:03.413Z,62.79
2023-09-24T01:55:19.588Z,62.77
2023-09-24T01:55:35.728Z,62.65
2023-09-24T01:55:51.870Z,62.64
2023-09-24T01:56:08.064Z,62.63
2023-09-24T01:56:24.190Z,62.48
2023-09-24T01:56:40.335Z,62.47
2023-09-24T01:56:56.470Z,62.53
2023-09-24T01:57:12.602Z,62.55
2023-09-24T01:57:28.723Z,62.6
2023-09-24T01:57:44.876Z,62.63
2023-09-24T01:58:01.029Z,62.7
2023-09-24T01:58:17.162Z,62.7
2023-09-24T01:58:33.313Z,62.76
2023-09-24T01:58:49.474Z,62.63
2023-09-24T01:59:05.664Z,62.44
2023-09-24T01:59:21.781Z,62.37
2023-09-24T01:59:37.995Z,62.47
2023-09-24T01:59:54.096Z,62.57
2023-09-24T02:00:10.200Z,62.45
2023-09-24T02:00:26.401Z,62.5
2023-09-24T02:00:42.492Z,62.58
2023-09-24T02:00:58.668Z,62.68
2023-09-24T02:01:14.857Z,62.76
2023-09-24T02:01:30.948Z,62.64
2023-09-24T02:01:47.088Z,62.49
2023-09-24T02:02:03.293Z,62.48
2023-09-24T02:02:19.388Z,62.51
2023-09-24T02:02:35.572Z,62.6
2023-09-24T02:02:51.715Z,62.55
2023-09-24T02:03:07.889Z,62.61
2023-09-24T02:03:24.048Z,62.63
2023-09-24T02:03:40.235Z,62.68
2023-09-24T02:03:56.341Z,62.74
2023-09-24T02:04:12.371Z,62.84
2023-09-24T02:04:28.528Z,63
2023-09-24T02:04:44.674Z,63.08
2023-09-24T02:05:00.820Z,63.14
2023-09-24T02:05:16.965Z,63.04
2023-09-24T02:05:33.126Z,62.87
2023-09-24T02:05:49.319Z,62.71
2023-09-24T02:06:05.679Z,62.73
2023-09-24T02:06:21.553Z,62.61
2023-09-24T02:06:37.707Z,62.57
2023-09-24T02:06:53.834Z,62.52
2023-09-24T02:07:10.010Z,62.52
2023-09-24T02:07:26.135Z,62.6
2023-09-24T02:07:58.404Z,62.51
2023-09-24T02:08:14.570Z,62.4
2023-09-24T02:08:30.705Z,62.38
2023-09-24T02:09:03.030Z,62.26
2023-09-24T02:09:19.148Z,62.18
2023-09-24T02:09:35.280Z,62.13
2023-09-24T02:10:07.582Z,62.07
2023-09-24T02:10:23.724Z,62.1
2023-09-24T02:10:39.892Z,62.2
2023-09-24T02:10:56.012Z,62.41
2023-09-24T02:11:12.153Z,62.44
2023-09-24T02:11:28.330Z,62.43
2023-09-24T02:11:44.512Z,62.55
2023-09-24T02:12:00.667Z,62.56
2023-09-24T02:12:16.739Z,62.45
2023-09-24T02:12:32.883Z,62.39
2023-09-24T02:12:49.038Z,62.43
2023-09-24T02:13:05.171Z,62.38
2023-09-24T02:13:21.322Z,62.36
2023-09-24T02:13:37.474Z,62.41
2023-09-24T02:13:53.628Z,62.55
2023-09-24T02:14:09.775Z,62.57
2023-09-24T02:14:25.930Z,62.63
2023-09-24T02:14:58.251Z,62.73
2023-09-24T02:15:30.488Z,62.64
2023-09-24T02:16:02.778Z,62.62
2023-09-24T02:16:35.063Z,62.57
2023-09-24T02:17:07.372Z,62.6
2023-09-24T02:17:39.713Z,62.8
2023-09-24T02:18:12.018Z,62.7
2023-09-24T02:19:16.508Z,62.82
2023-09-24T02:20:21.100Z,62.68
2023-09-24T02:21:25.683Z,62.52
2023-09-24T02:21:57.972Z,62.26
2023-09-24T02:22:30.174Z,62.19
2023-09-24T02:23:02.542Z,62.31
2023-09-24T02:23:34.901Z,62.41
2023-09-24T02:24:07.169Z,62.33
2023-09-24T02:24:39.424Z,62.35
2023-09-24T02:25:11.710Z,62.33
2023-09-24T02:25:44.006Z,62.3
2023-09-24T02:26:16.317Z,62.56
2023-09-24T02:26:48.636Z,62.67
2023-09-24T02:27:20.875Z,62.7
2023-09-24T02:27:53.173Z,62.54
2023-09-24T02:28:25.636Z,62.62
2023-09-24T02:29:09.052Z,62.7
2023-09-24T02:29:25.288Z,62.68
2023-09-24T02:29:41.483Z,62.7
2023-09-24T02:29:57.623Z,62.78
2023-09-24T02:30:13.721Z,62.83
2023-09-24T02:30:31.618Z,62.79
2023-09-24T02:30:46.080Z,62.72
2023-09-24T02:31:02.170Z,62.74
2023-09-24T02:31:18.211Z,62.7
2023-09-24T02:31:34.387Z,62.7
2023-09-24T02:31:50.521Z,62.69
2023-09-24T02:32:06.632Z,62.74
2023-09-24T02:32:22.813Z,62.67
2023-09-24T02:32:39.003Z,62.72
2023-09-24T02:32:55.353Z,62.93
2023-09-24T02:33:11.347Z,62.99
2023-09-24T02:33:27.462Z,62.94
2023-09-24T02:33:43.574Z,62.77
2023-09-24T02:33:59.659Z,62.72
2023-09-24T02:34:15.796Z,62.79
2023-09-24T02:34:31.945Z,62.76
2023-09-24T02:34:48.085Z,62.83
2023-09-24T02:35:04.237Z,62.93
2023-09-24T02:35:20.394Z,63.04
2023-09-24T02:35:36.572Z,63.01
2023-09-24T02:35:52.724Z,63.15
2023-09-24T02:36:08.844Z,63.18
2023-09-24T02:36:24.947Z,63.19
2023-09-24T02:36:41.163Z,63.15
2023-09-24T02:36:57.258Z,63.09
2023-09-24T02:37:13.428Z,63.04
2023-09-24T02:37:29.545Z,62.87
2023-09-24T02:37:45.705Z,62.82
2023-09-24T02:38:01.849Z,62.87
2023-09-24T02:38:18.006Z,62.92
2023-09-24T02:38:50.301Z,63.1
2023-09-24T02:39:06.432Z,63.03
2023-09-24T02:39:22.563Z,63.02
2023-09-24T02:39:54.846Z,63.09
2023-09-24T02:40:11.010Z,63.15
2023-09-24T02:40:27.143Z,63.18
2023-09-24T02:40:59.448Z,62.92
2023-09-24T02:41:15.605Z,62.82
2023-09-24T02:41:31.732Z,62.78
2023-09-24T02:41:47.899Z,62.57
2023-09-24T02:42:04.036Z,62.52
2023-09-24T02:42:20.178Z,62.54
2023-09-24T02:42:36.333Z,62.63
2023-09-24T02:42:52.457Z,62.75
2023-09-24T02:43:08.587Z,62.83
2023-09-24T02:43:24.761Z,63.02
2023-09-24T02:43:40.880Z,63.06
2023-09-24T02:43:57.054Z,62.93
2023-09-24T02:44:13.191Z,62.71
2023-09-24T02:44:29.354Z,62.53
2023-09-24T02:44:45.495Z,62.57
2023-09-24T02:45:01.667Z,62.58
2023-09-24T02:45:17.785Z,62.75
2023-09-24T02:45:34.132Z,62.74
2023-09-24T02:45:50.151Z,62.7
2023-09-24T02:46:06.238Z,62.78
2023-09-24T02:46:22.399Z,62.88
2023-09-24T02:46:38.515Z,62.75
2023-09-24T02:46:54.658Z,62.71
2023-09-24T02:47:10.787Z,62.76
2023-09-24T02:47:27.005Z,62.81
2023-09-24T02:47:43.154Z,62.92
2023-09-24T02:47:59.424Z,63.15
2023-09-24T02:48:15.485Z,63.31
2023-09-24T02:48:31.555Z,63.16
2023-09-24T02:48:47.757Z,63.15
2023-09-24T02:49:03.809Z,63.22
2023-09-24T02:49:19.958Z,63.16
2023-09-24T02:49:36.092Z,63.15
2023-09-24T02:49:52.230Z,63.33
2023-09-24T02:50:08.391Z,63.41
2023-09-24T02:50:24.581Z,63.33
2023-09-24T02:50:40.718Z,63.32
2023-09-24T02:50:56.857Z,63.41
2023-09-24T02:51:12.977Z,63.2
2023-09-24T02:51:29.159Z,63.15
2023-09-24T02:51:45.278Z,63.16
2023-09-24T02:52:01.418Z,63.22
2023-09-24T02:52:17.550Z,63.23
2023-09-24T02:52:33.708Z,63.24
2023-09-24T02:52:49.847Z,63.37
2023-09-24T02:53:06.087Z,63.49
2023-09-24T02:53:22.148Z,63.65
2023-09-24T02:53:38.308Z,63.64
2023-09-24T02:53:54.445Z,63.39
2023-09-24T02:54:10.585Z,63.32
2023-09-24T02:54:26.721Z,63.34
2023-09-24T02:54:42.872Z,63.34
2023-09-24T02:54:58.999Z,63.43
2023-09-24T02:55:15.145Z,63.46
2023-09-24T02:55:31.360Z,63.49
2023-09-24T02:55:47.494Z,63.45
2023-09-24T02:56:03.580Z,63.38
2023-09-24T02:56:19.750Z,63.44
2023-09-24T02:56:35.896Z,63.44
2023-09-24T02:56:52.213Z,63.38
2023-09-24T02:57:08.184Z,63.34
2023-09-24T02:57:24.315Z,63.39
2023-09-24T02:57:40.463Z,63.42
2023-09-24T02:57:56.623Z,63.39
2023-09-24T02:58:12.759Z,63.32
2023-09-24T02:58:28.896Z,63.37
2023-09-24T02:58:45.041Z,63.47
2023-09-24T02:59:01.198Z,63.62
2023-09-24T02:59:17.339Z,63.63
2023-09-24T02:59:33.525Z,63.63
2023-09-24T02:59:49.686Z,63.71
2023-09-24T03:00:05.786Z,63.66
2023-09-24T03:00:21.932Z,63.51
2023-09-24T03:00:38.435Z,63.35
2023-09-24T03:00:54.259Z,63.15
2023-09-24T03:01:10.358Z,63.09
2023-09-24T03:01:26.550Z,63.05
2023-09-24T03:01:42.661Z,63.14
2023-09-24T03:01:59.878Z,63.06
2023-09-24T03:02:14.942Z,63.04
2023-09-24T03:02:31.319Z,63.02
2023-09-24T03:02:47.404Z,63.14
2023-09-24T03:03:03.505Z,63.12
2023-09-24T03:03:19.670Z,63.06
2023-09-24T03:03:35.792Z,63.06
2023-09-24T03:03:52.401Z,62.95
2023-09-24T03:04:08.150Z,62.87
2023-09-24T03:04:24.251Z,62.84
2023-09-24T03:04:40.417Z,62.88
2023-09-24T03:04:56.406Z,62.84
2023-09-24T03:05:12.548Z,62.78
2023-09-24T03:05:28.772Z,62.83
2023-09-24T03:05:45.162Z,62.86
2023-09-24T03:06:01.027Z,62.83
2023-09-24T03:06:17.125Z,62.75
2023-09-24T03:06:33.264Z,62.82
2023-09-24T03:06:49.407Z,63.23
2023-09-24T03:07:05.548Z,63.44
2023-09-24T03:07:21.690Z,63.53
2023-09-24T03:07:37.882Z,63.61
2023-09-24T03:07:56.498Z,63.39
2023-09-24T03:08:10.152Z,63.4
2023-09-24T03:08:26.363Z,63.45
2023-09-24T03:08:42.486Z,63.45
2023-09-24T03:08:58.588Z,63.51
2023-09-24T03:09:14.724Z,63.57
2023-09-24T03:09:30.884Z,63.61
2023-09-24T03:09:47.035Z,63.58
2023-09-24T03:10:03.178Z,63.56
2023-09-24T03:10:19.349Z,63.42
2023-09-24T03:10:35.453Z,63.36
2023-09-24T03:10:51.585Z,63.45
2023-09-24T03:11:07.755Z,63.53
2023-09-24T03:11:23.926Z,63.59
2023-09-24T03:11:40.062Z,63.5
2023-09-24T03:11:56.220Z,63.39
2023-09-24T03:12:12.329Z,63.4
2023-09-24T03:12:28.482Z,63.46
2023-09-24T03:13:16.916Z,63.58
2023-09-24T03:13:33.089Z,63.58
2023-09-24T03:14:21.413Z,63.6
2023-09-24T03:14:37.588Z,63.57
2023-09-24T03:15:26.133Z,63.41
2023-09-24T03:15:42.235Z,63.4
2023-09-24T03:16:30.691Z,63.32
2023-09-24T03:16:46.728Z,63.49
2023-09-24T03:17:35.314Z,63.66
2023-09-24T03:17:51.363Z,63.56
2023-09-24T03:18:39.892Z,63.33
2023-09-24T03:18:56.004Z,63.25
2023-09-24T03:19:44.459Z,63.61
2023-09-24T03:20:00.473Z,63.79
2023-09-24T03:20:49.027Z,64.05
2023-09-24T03:21:05.195Z,64.12
2023-09-24T03:21:53.503Z,64.37
2023-09-24T03:22:09.708Z,64.12
2023-09-24T03:23:09.451Z,63.89
2023-09-24T03:23:25.636Z,64
2023-09-24T03:23:41.796Z,64.11
2023-09-24T03:23:57.991Z,64.06
2023-09-24T03:24:14.031Z,63.98
2023-09-24T03:24:30.173Z,63.94
2023-09-24T03:24:46.302Z,63.87
2023-09-24T03:25:02.437Z,63.96
2023-09-24T03:25:18.708Z,64.02
2023-09-24T03:25:34.736Z,64.06
2023-09-24T03:25:50.924Z,63.96
2023-09-24T03:26:07.051Z,63.92
2023-09-24T03:26:23.190Z,63.91
2023-09-24T03:26:39.357Z,63.95
2023-09-24T03:26:55.520Z,64.03
2023-09-24T03:27:11.624Z,64.08
2023-09-24T03:27:27.757Z,64.19
2023-09-24T03:27:43.893Z,64.42
2023-09-24T03:28:00.062Z,64.43
2023-09-24T03:28:16.198Z,64.29
2023-09-24T03:28:32.353Z,64.18
2023-09-24T03:28:48.490Z,64.18
2023-09-24T03:29:04.641Z,64.3
2023-09-24T03:29:20.784Z,64.43
2023-09-24T03:29:36.967Z,64.55
2023-09-24T03:29:53.179Z,64.5
2023-09-24T03:30:09.224Z,64.48
2023-09-24T03:30:25.376Z,64.45
2023-09-24T03:30:41.504Z,64.53
2023-09-24T03:30:57.651Z,64.43
2023-09-24T03:31:13.796Z,64.4
2023-09-24T03:31:30.005Z,64.36
2023-09-24T03:31:46.203Z,64.27
2023-09-24T03:32:02.293Z,64.24
2023-09-24T03:32:18.390Z,64.23
2023-09-24T03:32:50.813Z,64.28
2023-09-24T03:33:07.078Z,64.21
2023-09-24T03:33:55.279Z,64.18
2023-09-24T03:34:11.392Z,64.12
2023-09-24T03:34:27.559Z,64.2
2023-09-24T03:34:43.689Z,64.2
2023-09-24T03:34:59.845Z,64.21
2023-09-24T03:35:15.993Z,64.34
2023-09-24T03:35:32.204Z,64.41
2023-09-24T03:35:48.319Z,64.43
2023-09-24T03:36:04.471Z,64.25
2023-09-24T03:36:20.570Z,64.24
2023-09-24T03:36:36.825Z,64.16
2023-09-24T03:36:52.931Z,64.18
2023-09-24T03:37:09.001Z,64.4
2023-09-24T03:37:25.149Z,64.47
2023-09-24T03:37:41.289Z,64.52
2023-09-24T03:37:57.441Z,64.56
2023-09-24T03:38:13.585Z,64.54
2023-09-24T03:38:29.748Z,64.51
2023-09-24T03:38:45.967Z,64.37
2023-09-24T03:39:02.102Z,64.34
2023-09-24T03:39:18.230Z,64.36
2023-09-24T03:39:34.341Z,64.36
2023-09-24T03:39:50.530Z,64.34
2023-09-24T03:40:06.586Z,64.38
2023-09-24T03:40:22.754Z,64.3
2023-09-24T03:40:38.918Z,64.26
2023-09-24T03:40:55.089Z,64.21
2023-09-24T03:41:11.232Z,64.24
2023-09-24T03:41:27.416Z,64.21
2023-09-24T03:41:43.570Z,64.18
2023-09-24T03:41:59.660Z,64.19
2023-09-24T03:42:15.758Z,64.21
2023-09-24T03:42:31.927Z,64.25
2023-09-24T03:42:48.066Z,64.28
2023-09-24T03:43:04.213Z,64.34
2023-09-24T03:43:20.358Z,64.38
2023-09-24T03:43:52.647Z,64.18
2023-09-24T03:44:08.803Z,64.11
2023-09-24T03:44:24.968Z,64.08
2023-09-24T03:44:57.342Z,64.11
2023-09-24T03:45:13.368Z,64.12
2023-09-24T03:45:29.513Z,64.04
2023-09-24T03:45:45.793Z,64.07
2023-09-24T03:46:01.927Z,64.06
2023-09-24T03:46:17.994Z,64.06
2023-09-24T03:46:34.098Z,64
2023-09-24T03:46:50.260Z,64.06
2023-09-24T03:47:06.394Z,64.12
2023-09-24T03:47:22.545Z,64.2
2023-09-24T03:47:38.781Z,64.26
2023-09-24T03:47:54.948Z,64.2
2023-09-24T03:48:11.100Z,64.02
2023-09-24T03:48:27.187Z,63.88
2023-09-24T03:48:43.321Z,63.91
2023-09-24T03:48:59.404Z,63.98
2023-09-24T03:49:15.553Z,64
2023-09-24T03:49:31.692Z,63.95
2023-09-24T03:49:47.827Z,64
2023-09-24T03:50:03.992Z,63.91
2023-09-24T03:50:20.117Z,64
2023-09-24T03:50:36.301Z,64.04
2023-09-24T03:50:52.450Z,63.93
2023-09-24T03:51:08.558Z,64.12
2023-09-24T03:51:24.719Z,64.19
2023-09-24T03:51:40.853Z,64.3
2023-09-24T03:51:57.001Z,64.38
2023-09-24T03:52:13.137Z,64.2
2023-09-24T03:52:29.293Z,64.26
2023-09-24T03:52:45.433Z,64.34
2023-09-24T03:53:01.577Z,64.41
2023-09-24T03:53:17.734Z,64.41
2023-09-24T03:53:33.895Z,64.21
2023-09-24T03:53:50.323Z,64.15
2023-09-24T03:54:06.195Z,64.1
2023-09-24T03:54:22.346Z,64.09
2023-09-24T03:54:38.452Z,64.15
2023-09-24T03:54:54.622Z,64.25
2023-09-24T03:55:10.748Z,64.31
2023-09-24T03:55:26.934Z,64.35
2023-09-24T03:55:42.962Z,64.35
2023-09-24T03:55:59.192Z,64.3
2023-09-24T03:56:15.329Z,64.31
2023-09-24T03:56:31.532Z,64.3
2023-09-24T03:56:47.675Z,64.27
2023-09-24T03:57:03.784Z,64.18
2023-09-24T03:57:19.915Z,64.12
2023-09-24T03:57:36.078Z,64.12
2023-09-24T03:57:52.222Z,64.15
2023-09-24T03:58:08.355Z,64.16
2023-09-24T03:58:24.504Z,64.01
2023-09-24T03:58:40.634Z,64
2023-09-24T03:58:56.791Z,63.98
2023-09-24T03:59:12.951Z,64.01
2023-09-24T03:59:29.124Z,64.02
2023-09-24T03:59:45.251Z,63.97
2023-09-24T04:00:01.405Z,63.99
2023-09-24T04:00:17.508Z,64.05
2023-09-24T04:00:33.652Z,64.1
2023-09-24T04:00:49.824Z,64.19
2023-09-24T04:01:05.976Z,64.2
2023-09-24T04:01:22.114Z,64.17
2023-09-24T04:01:38.296Z,64.15
2023-09-24T04:01:54.410Z,64.09
2023-09-24T04:02:10.560Z,64.14
2023-09-24T04:02:26.698Z,64.07
2023-09-24T04:02:42.933Z,64.06
2023-09-24T04:02:59.084Z,64.08
2023-09-24T04:03:15.345Z,64.08
2023-09-24T04:03:31.334Z,64.08
2023-09-24T04:03:47.736Z,64.07
2023-09-24T04:04:03.725Z,64.07
2023-09-24T04:04:19.796Z,64.02
2023-09-24T04:04:35.865Z,63.96
2023-09-24T04:04:51.984Z,63.9
2023-09-24T04:05:08.122Z,63.95
2023-09-24T04:05:25.922Z,63.99
2023-09-24T04:05:56.617Z,64.05
2023-09-24T04:06:12.730Z,64.08
2023-09-24T04:06:28.873Z,64.14
2023-09-24T04:07:01.160Z,64.09
2023-09-24T04:07:17.293Z,64.07
2023-09-24T04:07:33.446Z,64.01
2023-09-24T04:08:05.745Z,64.1
2023-09-24T04:08:21.870Z,64.09
2023-09-24T04:08:38.065Z,64.09
2023-09-24T04:08:54.228Z,64.2
2023-09-24T04:09:10.321Z,64.28
2023-09-24T04:09:26.458Z,64.29
2023-09-24T04:09:42.616Z,64.24
2023-09-24T04:09:58.754Z,64.2
2023-09-24T04:10:31.042Z,64.21
2023-09-24T04:10:47.186Z,64.28
2023-09-24T04:11:35.649Z,64.27
2023-09-24T04:11:51.832Z,64.24
2023-09-24T04:12:40.144Z,64.14
2023-09-24T04:12:56.361Z,64.16
2023-09-24T04:13:44.787Z,64.01
2023-09-24T04:14:00.930Z,64.14
2023-09-24T04:14:49.408Z,64.3
2023-09-24T04:15:05.530Z,64.29